Bethlehem, West Virginia
Current Conditions -  °F | °C
As of 1:53 AM on Thursday 27 Nov 2014 (Local Time) from KHLG Reporting Station
Moderate Fog Moderate Fog  
Wind Chill: 32°   Ceiling: 300
Heat Index: 32°   Visibility: 0.25mi
Dew Point: 31°   Wind: 0mph
Humidity: 96%   Direction: NA
Pressure: 29.99"   Gusts: NA
Location:  40.0729°N, 80.6524°W
Report Text: KHLG 270653Z AUTO 00000KT 1/4SM R03/4000VP6000FT FG VV003 00/M01 A2999 RMK AO2 SLP170 T00001006
Loading
Personal Weather Stations






























Interactive Weather Map New forecast layout! Learn more

10-Day Weather Forecast

Advertisements
Track Severe Weather on mobile